Time;durP1;ratioP1;P1;durP2;ratioP2;P2;SDS_P1;SDS_P2;PMS_P1;PMS_P2;Temp;Humidity;BMP_temperature;BMP_pressure;BME280_temperature;BME280_humidity;BME280_pressure;Samples;Min_cycle;Max_cycle;Signal;HPM_P1;HPM_P2
2022/02/03 00:02:21;;;;;;;22.05;8.18;;;;;;;9.18;79.48;102126.91;5043334;28;20452;-64
2022/02/03 00:04:59;;;;;;;21.00;8.73;;;;;;;9.09;79.42;102131.34;5017708;28;20021;-63
2022/02/03 00:07:36;;;;;;;24.55;9.77;;;;;;;9.10;79.52;102138.31;5008694;28;20053;-63
2022/02/03 00:26:31;;;;;;;22.23;9.82;;;;;;;8.69;80.93;102134.19;5028975;28;20079;-62
2022/02/03 00:28:58;;;;;;;30.23;10.80;;;;;;;8.68;80.95;102129.84;5027728;28;20026;-64
2022/02/03 00:34:11;;;;;;;36.85;11.93;;;;;;;8.61;81.29;102136.00;5008464;28;20042;-64
2022/02/03 00:50:26;;;;;;;25.23;11.18;;;;;;;8.66;81.33;102111.44;5008833;28;20092;-64
2022/02/03 00:52:52;;;;;;;30.92;11.23;;;;;;;8.63;81.15;102110.56;5012806;28;20635;-64
2022/02/03 00:55:17;;;;;;;31.90;11.38;;;;;;;8.68;81.14;102106.19;5030890;28;20029;-64
2022/02/03 00:57:47;;;;;;;36.78;12.40;;;;;;;8.62;81.42;102106.22;5029019;28;20036;-64
2022/02/03 01:00:16;;;;;;;28.88;11.23;;;;;;;8.55;81.35;102103.59;5011491;28;20029;-63
2022/02/03 01:02:51;;;;;;;32.40;12.48;;;;;;;8.59;81.69;102107.09;5028950;28;20428;-65
2022/02/03 01:05:18;;;;;;;23.45;11.35;;;;;;;8.66;81.14;102103.56;5028710;28;20021;-63
2022/02/03 01:07:46;;;;;;;24.85;11.98;;;;;;;8.66;81.46;102105.31;5026948;28;20709;-64
2022/02/03 01:10:17;;;;;;;34.15;13.35;;;;;;;8.64;81.28;102105.31;5046485;28;20622;-63
2022/02/03 01:33:54;;;;;;;36.15;15.88;;;;;;;8.56;81.70;102078.22;5047045;28;20520;-63
2022/02/03 01:44:59;;;;;;;34.20;16.08;;;;;;;8.54;81.29;102061.59;5027780;28;20128;-63
2022/02/03 01:52:31;;;;;;;28.38;16.02;;;;;;;8.55;81.73;102055.47;5026585;28;20040;-65
2022/02/03 01:54:58;;;;;;;31.90;14.43;;;;;;;8.59;81.38;102054.56;5027198;28;20021;-63
2022/02/03 01:57:40;;;;;;;33.08;15.38;;;;;;;8.64;80.97;102054.53;5046211;28;20557;-63
2022/02/03 02:00:14;;;;;;;24.48;13.30;;;;;;;8.64;80.80;102055.38;5046343;28;20420;-64
2022/02/03 02:03:04;;;;;;;29.38;13.65;;;;;;;8.65;81.01;102051.03;5047178;28;20085;-63
2022/02/03 02:08:29;;;;;;;31.40;13.18;;;;;;;8.61;81.30;102042.25;5380059;22;20056;-62
2022/02/03 02:11:12;;;;;;;37.25;15.55;;;;;;;8.51;81.37;102049.31;5006424;28;20091;-63
2022/02/03 02:14:03;;;;;;;33.25;13.90;;;;;;;8.55;81.67;102048.44;5004849;28;20520;-64
2022/02/03 02:16:58;;;;;;;34.17;15.50;;;;;;;8.58;81.38;102050.19;5007078;28;20065;-63
2022/02/03 02:38:59;;;;;;;23.75;9.07;;;;;;;8.58;79.51;102013.41;5046454;28;20035;-65
2022/02/03 02:44:33;;;;;;;24.48;7.80;;;;;;;8.57;79.13;101991.50;4976336;28;20045;-65
2022/02/03 02:46:58;;;;;;;26.77;9.15;;;;;;;8.59;78.96;101986.25;5008201;28;20383;-64
2022/02/03 02:49:27;;;;;;;21.35;7.32;;;;;;;8.57;79.29;101975.75;5026670;28;20030;-64
2022/02/03 02:52:07;;;;;;;24.30;8.13;;;;;;;8.55;79.14;101974.88;5007762;28;20026;-64
2022/02/03 02:55:48;;;;;;;17.48;7.85;;;;;;;8.61;78.92;101981.00;5029337;28;20030;-63
2022/02/03 03:30:40;;;;;;;13.55;5.55;;;;;;;8.47;78.26;101904.00;5041466;28;20110;-64
2022/02/03 03:35:54;;;;;;;19.10;7.10;;;;;;;8.43;78.44;101893.53;5011696;28;20095;-63
2022/02/03 03:38:33;;;;;;;16.35;6.93;;;;;;;8.38;78.34;101887.44;5028822;28;20030;-63
2022/02/03 03:41:00;;;;;;;18.80;6.68;;;;;;;8.39;78.43;101889.16;5011569;28;20079;-62
2022/02/03 03:43:45;;;;;;;22.60;8.48;;;;;;;8.29;78.23;101886.63;5033333;28;20028;-64
2022/02/03 03:46:15;;;;;;;15.40;7.53;;;;;;;8.34;78.38;101883.97;5017302;28;20038;-63
2022/02/03 03:49:02;;;;;;;15.88;8.35;;;;;;;8.40;77.88;101881.25;5020132;28;20032;-63
2022/02/03 03:51:43;;;;;;;19.92;7.32;;;;;;;8.50;77.57;101875.94;5028642;28;20029;-63
2022/02/03 03:54:12;;;;;;;15.63;7.03;;;;;;;8.72;76.62;101888.06;5031004;28;20174;-64
2022/02/03 03:57:09;;;;;;;12.27;6.95;;;;;;;8.68;76.48;101877.56;5011883;28;20056;-63
2022/02/03 04:40:15;;;;;;;;;;;;;;;8.64;76.46;101844.34;5009441;28;20116;-62
2022/02/03 04:57:44;;;;;;;17.23;6.18;;;;;;;8.51;76.60;101836.53;5029740;28;20047;-63
2022/02/03 05:15:32;;;;;;;17.20;4.80;;;;;;;8.48;76.13;101807.66;5026854;28;20037;-64
2022/02/03 05:44:48;;;;;;;10.45;3.70;;;;;;;8.01;77.02;101766.06;5012847;28;20040;-65
2022/02/03 05:47:58;;;;;;;16.38;3.60;;;;;;;8.02;76.59;101764.31;5012487;28;20388;-64
2022/02/03 05:51:06;;;;;;;10.82;3.63;;;;;;;7.97;76.95;101765.22;5036426;28;20132;-63
2022/02/03 06:04:15;;;;;;;10.25;3.45;;;;;;;8.06;76.19;101738.03;5029965;28;20047;-63
2022/02/03 06:07:20;;;;;;;12.38;2.97;;;;;;;8.09;76.06;101734.50;5044900;28;20060;-63
2022/02/03 06:15:06;;;;;;;14.05;3.05;;;;;;;7.99;76.30;101732.84;5045342;28;20040;-63
2022/02/03 06:22:54;;;;;;;18.63;4.22;;;;;;;7.96;76.44;101734.63;5046273;28;20098;-64
2022/02/03 06:27:48;;;;;;;22.92;4.32;;;;;;;7.97;76.05;101719.72;5046152;28;19913;-65
2022/02/03 06:30:18;;;;;;;9.00;3.72;;;;;;;7.91;76.24;101715.41;5020695;28;20055;-64
2022/02/03 06:32:43;;;;;;;11.10;3.47;;;;;;;7.87;76.43;101711.06;5025707;28;20025;-64
2022/02/03 06:35:11;;;;;;;10.38;3.53;;;;;;;7.97;76.36;101703.97;5029080;28;20075;-64
2022/02/03 06:37:37;;;;;;;11.90;4.35;;;;;;;8.03;75.98;101698.69;5045299;28;20056;-62
2022/02/03 06:40:04;;;;;;;10.65;3.40;;;;;;;7.96;76.33;101683.88;5044619;28;20060;-63
2022/02/03 06:42:30;;;;;;;12.88;3.03;;;;;;;8.02;75.82;101678.56;5045628;28;20067;-65
2022/02/03 06:45:11;;;;;;;7.28;3.42;;;;;;;8.02;75.90;101689.06;5043953;28;20056;-64
2022/02/03 06:47:49;;;;;;;9.38;3.38;;;;;;;7.94;76.15;101668.13;5045495;28;20051;-61
2022/02/03 06:50:27;;;;;;;16.30;4.03;;;;;;;7.95;75.96;101674.28;5043595;28;20509;-63
2022/02/03 06:53:02;;;;;;;15.13;4.05;;;;;;;7.95;76.28;101684.78;5013098;28;20163;-60
2022/02/03 07:00:44;;;;;;;15.45;3.95;;;;;;;7.86;76.36;101687.47;5017310;28;20165;-60
2022/02/03 07:03:16;;;;;;;8.18;3.55;;;;;;;7.89;76.08;101684.81;5017223;28;20058;-60
2022/02/03 07:05:41;;;;;;;16.40;4.20;;;;;;;7.89;76.22;101690.06;5012923;28;20464;-60
2022/02/03 07:08:13;;;;;;;12.73;4.60;;;;;;;7.86;76.37;101684.84;5018277;28;20182;-62
2022/02/03 07:10:39;;;;;;;11.50;3.75;;;;;;;7.90;75.98;101678.69;5014330;28;20049;-60
2022/02/03 07:13:04;;;;;;;11.15;4.03;;;;;;;7.93;76.14;101678.66;5026131;28;20276;-60
2022/02/03 07:15:29;;;;;;;16.30;4.55;;;;;;;7.93;75.79;101682.16;5025376;28;20021;-60
2022/02/03 07:17:58;;;;;;;12.85;4.38;;;;;;;7.84;76.43;101691.00;5025224;28;20026;-61
2022/02/03 07:20:25;;;;;;;12.57;4.88;;;;;;;7.85;76.14;101678.72;5024529;28;20044;-61
2022/02/03 07:22:50;;;;;;;12.68;4.65;;;;;;;7.89;76.24;101680.41;5025583;28;20021;-61
2022/02/03 07:25:16;;;;;;;13.27;5.18;;;;;;;7.92;76.00;101676.91;5026797;28;20391;-61
2022/02/03 07:27:43;;;;;;;14.27;5.95;;;;;;;7.84;76.48;101672.63;5025387;28;20083;-60
2022/02/03 07:30:09;;;;;;;12.23;6.13;;;;;;;7.83;76.73;101667.38;5019573;28;20108;-61
2022/02/03 07:32:34;;;;;;;14.95;6.43;;;;;;;7.84;76.39;101656.88;5024632;28;20140;-62
2022/02/03 07:34:59;;;;;;;15.38;6.28;;;;;;;7.82;76.49;101657.75;5023081;28;20479;-59
2022/02/03 07:37:27;;;;;;;13.10;6.05;;;;;;;7.82;76.47;101660.38;5024695;28;20025;-60
2022/02/03 07:39:52;;;;;;;19.60;7.05;;;;;;;7.84;76.49;101656.00;5034242;28;20111;-59
2022/02/03 07:42:18;;;;;;;12.88;7.00;;;;;;;7.88;76.31;101664.69;5044728;28;20571;-59
2022/02/03 07:44:44;;;;;;;13.88;6.35;;;;;;;7.94;76.15;101667.25;5003803;28;20041;-62
2022/02/03 07:47:09;;;;;;;15.27;7.80;;;;;;;7.89;76.32;101664.66;5002508;28;20025;-59
2022/02/03 07:49:35;;;;;;;19.60;8.18;;;;;;;7.86;76.17;101671.72;4999654;28;20083;-60
2022/02/03 07:52:04;;;;;;;18.40;7.40;;;;;;;7.85;76.60;101673.47;5000218;28;20068;-60
2022/02/03 07:54:31;;;;;;;19.88;7.40;;;;;;;7.91;76.42;101662.91;4997384;28;20033;-61
2022/02/03 07:57:00;;;;;;;18.52;7.18;;;;;;;7.86;76.71;101666.47;4996676;28;20022;-60
2022/02/03 07:59:25;;;;;;;13.23;8.07;;;;;;;7.81;77.02;101661.25;4998124;28;20044;-64
2022/02/03 08:01:50;;;;;;;23.73;8.50;;;;;;;7.79;77.44;101663.03;5001089;28;20033;-64
2022/02/03 08:04:20;;;;;;;16.75;7.90;;;;;;;7.78;77.72;101675.28;4983698;28;20049;-63
2022/02/03 08:06:47;;;;;;;18.88;9.38;;;;;;;7.72;78.47;101670.09;5006703;28;20934;-63
2022/02/03 08:09:22;;;;;;;15.80;8.52;;;;;;;7.70;79.17;101664.84;5022765;28;20055;-63
2022/02/03 08:11:49;;;;;;;20.02;8.20;;;;;;;7.59;79.85;101664.09;5020406;28;20625;-63
2022/02/03 08:14:22;;;;;;;19.88;9.38;;;;;;;7.63;80.15;101663.16;5003682;28;20124;-62
2022/02/03 08:16:53;;;;;;;18.30;9.68;;;;;;;7.64;80.51;101657.03;5013480;28;20045;-61
2022/02/03 08:19:27;;;;;;;21.73;9.73;;;;;;;7.61;81.03;101654.44;5001586;28;20044;-63
2022/02/03 08:22:01;;;;;;;20.13;10.32;;;;;;;7.61;81.19;101658.81;5005090;28;20100;-62
2022/02/03 08:24:44;;;;;;;15.10;10.07;;;;;;;7.54;81.94;101653.63;5024859;28;20430;-61
2022/02/03 08:27:36;;;;;;;15.23;10.15;;;;;;;7.50;82.27;101641.44;5018223;28;20025;-62
2022/02/03 08:32:27;;;;;;;20.35;10.70;;;;;;;7.36;83.04;101638.03;5010741;28;20041;-62
2022/02/03 08:37:18;;;;;;;13.68;10.57;;;;;;;7.32;82.98;101624.94;5024072;28;20089;-63
2022/02/03 08:39:55;;;;;;;15.10;9.70;;;;;;;7.30;83.28;101634.59;5012660;28;20026;-62
2022/02/03 08:42:21;;;;;;;18.38;10.25;;;;;;;7.17;83.76;101638.16;5008520;28;20048;-62
2022/02/03 08:44:47;;;;;;;14.73;10.10;;;;;;;7.23;83.78;101632.88;5024737;28;20332;-64
2022/02/03 08:47:13;;;;;;;19.27;11.25;;;;;;;7.21;83.86;101618.91;5006799;28;20425;-63
2022/02/03 08:49:42;;;;;;;18.65;12.02;;;;;;;7.19;83.40;101626.78;5005558;28;20025;-61
2022/02/03 08:52:16;;;;;;;15.32;11.23;;;;;;;7.15;84.01;101621.56;5004593;28;20484;-62
2022/02/03 08:54:49;;;;;;;16.55;11.68;;;;;;;7.18;83.71;101619.81;5006182;28;20044;-63
2022/02/03 08:57:22;;;;;;;16.45;11.40;;;;;;;7.19;83.76;101620.66;5003848;28;20028;-63
2022/02/03 09:54:28;;;;;;;21.90;12.25;;;;;;;7.07;84.29;101622.50;5003235;28;20041;-62
2022/02/03 10:02:17;;;;;;;17.45;10.15;;;;;;;7.21;84.05;101608.44;5006455;28;20870;-62
2022/02/03 10:07:17;;;;;;;18.13;11.13;;;;;;;7.39;83.53;101590.81;4992964;28;20133;-63
2022/02/03 10:09:43;;;;;;;18.63;10.18;;;;;;;7.44;83.34;101589.88;4995837;28;20030;-61
2022/02/03 10:12:10;;;;;;;25.63;10.80;;;;;;;7.41;83.09;101599.53;4994541;28;20765;-62
2022/02/03 10:14:48;;;;;;;16.00;10.18;;;;;;;7.47;83.28;101596.88;4993532;28;20519;-61
2022/02/03 10:17:17;;;;;;;24.77;9.20;;;;;;;7.61;82.44;101603.75;4994702;28;20501;-64
2022/02/03 10:19:49;;;;;;;;;;;;;;;7.66;81.88;101594.94;4996081;28;20119;-62
2022/02/03 10:22:22;;;;;;;15.77;7.95;;;;;;;7.75;81.57;101601.84;4984647;28;20674;-63
2022/02/03 10:24:50;;;;;;;15.02;7.95;;;;;;;7.65;81.98;101598.44;4993123;28;20033;-63
2022/02/03 10:27:34;;;;;;;15.30;8.10;;;;;;;7.73;81.69;101601.00;4993171;28;20014;-63
2022/02/03 10:30:10;;;;;;;15.55;8.13;;;;;;;7.79;81.48;101593.06;4998991;28;20021;-63
2022/02/03 10:32:40;;;;;;;13.52;8.00;;;;;;;7.78;81.54;101579.97;4985810;28;20102;-63
2022/02/03 10:35:22;;;;;;;20.98;8.35;;;;;;;7.88;81.14;101589.47;5001057;28;20060;-62
2022/02/03 10:38:05;;;;;;;16.33;7.65;;;;;;;7.88;80.75;101575.47;5005527;28;20025;-63
2022/02/03 10:43:35;;;;;;;13.05;7.25;;;;;;;7.71;80.79;101571.28;5002897;28;20356;-62
2022/02/03 10:52:13;;;;;;;12.93;7.85;;;;;;;7.69;80.68;101566.06;5000644;28;20424;-62
2022/02/03 11:07:49;;;;;;;17.67;9.57;;;;;;;7.54;80.84;101553.97;4998614;28;20484;-61
2022/02/03 11:10:37;;;;;;;17.63;9.93;;;;;;;7.59;80.83;101552.16;5003161;28;20041;-64
2022/02/03 11:13:03;;;;;;;14.27;9.57;;;;;;;7.66;80.47;101549.47;5001030;28;20033;-62
2022/02/03 11:15:31;;;;;;;14.10;9.95;;;;;;;7.76;80.26;101558.97;5001255;28;20014;-63
2022/02/03 11:17:58;;;;;;;16.25;9.55;;;;;;;7.96;79.55;101543.03;5002354;28;20033;-62
2022/02/03 11:20:26;;;;;;;15.93;8.82;;;;;;;8.00;78.83;101538.59;5000572;28;20531;-62
2022/02/03 11:25:34;;;;;;;14.25;9.75;;;;;;;7.97;78.90;101528.13;5002599;28;20046;-63
2022/02/03 11:28:18;;;;;;;15.90;9.40;;;;;;;8.07;77.99;101531.53;4983207;28;20113;-63
2022/02/03 11:31:08;;;;;;;13.43;8.70;;;;;;;8.07;78.02;101515.78;4982964;28;20091;-63
2022/02/03 11:39:40;;;;;;;20.35;10.38;;;;;;;8.38;77.50;101504.00;5003177;28;20107;-63
2022/02/03 11:47:02;;;;;;;16.48;9.60;;;;;;;8.39;77.00;101510.97;5012215;28;20515;-62
2022/02/03 12:15:46;;;;;;;21.88;11.52;;;;;;;8.24;79.96;101478.81;4987006;28;20104;-65
2022/02/03 12:18:31;;;;;;;28.05;12.13;;;;;;;8.27;79.53;101468.25;5016400;28;20910;-61
2022/02/03 12:21:07;;;;;;;18.17;11.70;;;;;;;8.25;80.27;101469.19;5025791;28;20025;-60
2022/02/03 12:26:14;;;;;;;26.02;12.65;;;;;;;8.17;80.23;101464.91;5005696;28;20041;-59
2022/02/03 12:28:51;;;;;;;21.73;12.40;;;;;;;8.18;80.40;101471.00;5022962;28;20036;-62
2022/02/03 12:39:21;;;;;;;22.90;12.35;;;;;;;7.82;81.67;101460.97;5015036;28;20118;-62
2022/02/03 12:42:04;;;;;;;18.45;12.45;;;;;;;7.92;81.62;101454.72;5004266;28;20499;-62
2022/02/03 12:44:31;;;;;;;17.52;11.68;;;;;;;7.95;81.14;101453.81;4985974;28;20388;-61
2022/02/03 12:47:02;;;;;;;15.88;10.70;;;;;;;7.93;80.89;101452.97;5004035;28;20507;-63
2022/02/03 12:49:30;;;;;;;14.60;11.02;;;;;;;8.01;80.46;101453.72;5022452;28;20564;-62
2022/02/03 12:51:55;;;;;;;15.13;11.23;;;;;;;8.08;80.30;101450.16;5024312;28;20029;-63
2022/02/03 12:54:21;;;;;;;15.27;10.35;;;;;;;8.12;80.15;101443.09;5020872;28;20167;-60
2022/02/03 12:56:46;;;;;;;20.33;12.00;;;;;;;8.22;79.35;101441.22;5004143;28;20128;-60
2022/02/03 12:59:15;;;;;;;16.70;11.10;;;;;;;8.18;79.29;101440.38;5003885;28;20037;-61
2022/02/03 13:01:42;;;;;;;17.30;11.30;;;;;;;8.21;79.10;101440.34;5004391;28;20091;-62
2022/02/03 13:04:12;;;;;;;17.45;11.27;;;;;;;8.24;78.97;101428.91;5002752;28;20138;-60
2022/02/03 13:06:46;;;;;;;20.90;11.50;;;;;;;8.29;78.70;101432.34;5004349;28;20017;-62
2022/02/03 13:09:12;;;;;;;17.45;11.20;;;;;;;8.21;78.55;101429.84;5002636;28;20610;-61
2022/02/03 13:14:22;;;;;;;16.67;11.57;;;;;;;8.21;79.19;101426.34;5004209;28;20120;-60
2022/02/03 13:24:51;;;;;;;18.83;13.43;;;;;;;8.09;80.17;101411.63;5022720;28;20028;-66
2022/02/03 13:27:23;;;;;;;22.30;13.90;;;;;;;7.92;80.51;101412.72;5007469;28;20033;-67
2022/02/03 13:32:33;;;;;;;19.77;13.48;;;;;;;8.01;80.17;101390.72;5007186;28;20492;-65
2022/02/03 13:35:08;;;;;;;18.75;12.95;;;;;;;7.92;80.21;101393.50;5019541;28;20029;-66
2022/02/03 13:37:40;;;;;;;21.02;12.75;;;;;;;7.81;80.89;101404.13;5026703;28;20041;-61
2022/02/03 13:40:12;;;;;;;18.38;12.23;;;;;;;7.89;80.75;101390.91;5030069;28;20095;-65
2022/02/03 13:42:44;;;;;;;26.35;11.45;;;;;;;7.85;80.82;101397.97;5026544;28;20193;-62
2022/02/03 13:45:09;;;;;;;21.73;11.10;;;;;;;7.93;80.50;101393.50;5042378;28;20494;-62
2022/02/03 13:47:35;;;;;;;21.42;12.23;;;;;;;7.90;80.53;101393.53;5046719;28;20033;-60
2022/02/03 13:50:05;;;;;;;19.88;11.95;;;;;;;7.88;81.02;101397.03;5044703;28;20305;-60
2022/02/03 13:52:36;;;;;;;;;;;;;;;7.88;80.91;101390.03;5046874;28;20028;-59
2022/02/03 14:13:03;;;;;;;12.18;8.88;;;;;;;7.83;80.00;101361.25;5045816;28;20044;-61
2022/02/03 14:15:33;;;;;;;14.80;8.93;;;;;;;7.93;79.80;101371.63;5036981;28;20091;-63
2022/02/03 14:18:04;;;;;;;12.63;8.43;;;;;;;7.88;79.60;101370.78;5026016;28;20144;-63
2022/02/03 14:28:17;;;;;;;15.20;8.93;;;;;;;8.03;79.68;101362.72;5046973;28;20048;-62
2022/02/03 14:30:46;;;;;;;15.25;8.05;;;;;;;8.12;78.90;101351.22;5044431;28;20022;-60
2022/02/03 14:33:16;;;;;;;19.40;8.10;;;;;;;8.12;78.43;101345.13;5046221;28;20025;-62
2022/02/03 14:35:44;;;;;;;16.33;7.75;;;;;;;8.12;78.85;101347.75;5036439;28;20016;-60
2022/02/03 14:38:31;;;;;;;9.75;7.38;;;;;;;8.27;78.55;101343.97;5023891;28;20033;-62
2022/02/03 14:41:08;;;;;;;13.38;6.97;;;;;;;8.35;77.90;101339.47;5016622;28;20052;-61
2022/02/03 14:43:33;;;;;;;10.77;7.30;;;;;;;8.45;77.72;101351.56;5025987;28;20033;-60
2022/02/03 14:46:00;;;;;;;12.98;6.90;;;;;;;8.43;77.68;101353.34;5020130;28;20368;-63
2022/02/03 14:48:25;;;;;;;11.23;6.13;;;;;;;8.47;77.23;101367.31;5019008;28;20112;-63
2022/02/03 14:50:54;;;;;;;12.13;7.32;;;;;;;8.55;76.92;101351.44;5017182;28;20183;-63
2022/02/03 14:53:30;;;;;;;12.73;7.95;;;;;;;8.54;77.48;101347.06;5009813;28;20034;-63
2022/02/03 14:58:39;;;;;;;14.02;7.05;;;;;;;8.58;76.91;101344.38;5020028;28;20497;-59
2022/02/03 15:01:05;;;;;;;15.30;7.43;;;;;;;8.51;77.54;101344.47;5021045;28;20052;-63
2022/02/03 15:03:31;;;;;;;10.75;6.35;;;;;;;8.57;77.30;101342.66;5022548;28;20029;-61
2022/02/03 15:06:03;;;;;;;16.30;7.00;;;;;;;8.52;77.10;101340.97;5033009;28;20067;-62
2022/02/03 15:11:07;;;;;;;16.52;6.78;;;;;;;8.54;77.29;101340.06;5044317;28;20483;-61
2022/02/03 15:13:42;;;;;;;14.07;7.13;;;;;;;8.53;77.16;101334.81;5045588;28;20439;-62
2022/02/03 15:16:09;;;;;;;11.27;5.45;;;;;;;8.44;77.21;101333.22;5034266;28;20033;-61
2022/02/03 15:18:35;;;;;;;12.48;5.78;;;;;;;8.39;77.30;101329.78;5004157;28;20029;-63
2022/02/03 15:21:00;;;;;;;8.48;5.70;;;;;;;8.38;77.33;101321.06;5022070;28;20030;-58
2022/02/03 15:23:25;;;;;;;11.55;6.05;;;;;;;8.32;77.23;101332.53;5008348;28;20065;-59
2022/02/03 15:25:52;;;;;;;9.90;5.75;;;;;;;8.40;77.23;101329.75;5021532;28;20080;-62
2022/02/03 15:28:18;;;;;;;14.18;5.65;;;;;;;8.31;77.41;101330.78;5004293;28;20038;-62
2022/02/03 15:30:43;;;;;;;16.23;6.90;;;;;;;8.25;77.40;101333.50;5013998;28;20129;-62
2022/02/03 15:33:09;;;;;;;13.65;5.70;;;;;;;8.11;78.24;101327.59;5008178;28;20149;-62
2022/02/03 15:35:42;;;;;;;12.90;5.63;;;;;;;8.14;78.24;101322.31;5028776;28;20029;-64
2022/02/03 15:38:12;;;;;;;11.50;5.93;;;;;;;8.18;77.89;101327.50;5012163;28;20065;-65
2022/02/03 15:40:38;;;;;;;11.20;5.30;;;;;;;8.23;77.59;101319.53;5008101;28;20091;-65
2022/02/03 15:43:11;;;;;;;11.15;6.22;;;;;;;8.17;78.06;101311.75;5044658;28;20503;-64
2022/02/03 15:45:43;;;;;;;8.45;5.65;;;;;;;8.20;77.95;101316.97;5028559;28;20095;-65
2022/02/03 16:04:21;;;;;;;10.75;6.05;;;;;;;8.03;79.20;101315.47;5023845;28;20036;-64
2022/02/03 16:17:39;;;;;;;11.23;6.28;;;;;;;8.07;79.62;101319.78;5013283;28;20096;-61
2022/02/03 16:20:15;;;;;;;13.10;6.60;;;;;;;8.00;79.60;101326.03;5017431;28;20064;-61
2022/02/03 16:54:59;;;;;;;10.73;5.75;;;;;;;7.93;79.47;101314.75;5008491;28;20041;-61
2022/02/03 16:57:26;;;;;;;13.30;6.45;;;;;;;7.92;79.71;101320.03;5008236;28;20037;-66
2022/02/03 17:00:04;;;;;;;7.25;4.90;;;;;;;7.90;79.80;101309.56;5008220;28;20021;-67
2022/02/03 17:02:29;;;;;;;12.63;6.40;;;;;;;7.92;79.87;101306.91;5027502;28;20025;-66
2022/02/03 17:04:56;;;;;;;7.93;4.78;;;;;;;7.99;79.53;101299.78;5043069;28;20024;-66
2022/02/03 17:07:22;;;;;;;9.82;5.55;;;;;;;7.93;79.53;101300.75;5047777;28;20120;-66
2022/02/03 17:09:49;;;;;;;10.20;5.43;;;;;;;7.91;79.63;101313.91;5029663;28;20506;-66
2022/02/03 17:12:15;;;;;;;9.63;5.43;;;;;;;7.93;79.46;101304.28;5026106;28;20049;-66
2022/02/03 17:14:41;;;;;;;10.43;4.85;;;;;;;7.94;79.36;101308.63;5028132;28;20037;-67
2022/02/03 17:17:06;;;;;;;10.30;5.20;;;;;;;7.98;79.08;101314.69;5023688;28;20025;-66
2022/02/03 17:19:31;;;;;;;12.60;5.57;;;;;;;7.93;79.41;101316.50;5027262;28;20025;-67
2022/02/03 17:21:57;;;;;;;8.05;4.93;;;;;;;7.94;79.35;101315.59;5005439;28;20116;-65
2022/02/03 17:24:22;;;;;;;8.68;4.90;;;;;;;7.92;79.52;101306.91;5003697;28;20026;-65
2022/02/03 17:27:01;;;;;;;7.80;4.72;;;;;;;7.92;79.27;101306.91;5004633;28;20221;-65
2022/02/03 17:55:21;;;;;;;10.27;6.82;;;;;;;7.82;80.25;101320.16;5003649;28;20040;-66
2022/02/03 18:10:59;;;;;;;12.63;7.20;;;;;;;7.78;80.54;101320.22;5004140;28;20142;-66
2022/02/03 18:29:51;;;;;;;9.75;5.90;;;;;;;7.77;79.84;101327.22;5026444;28;20112;-66
2022/02/03 18:32:46;;;;;;;9.30;5.30;;;;;;;7.76;79.54;101325.50;5026086;28;20079;-64
2022/02/03 18:46:24;;;;;;;7.50;5.22;;;;;;;7.83;78.87;101329.75;5037628;28;20195;-65
2022/02/03 18:49:45;;;;;;;11.88;6.30;;;;;;;7.83;78.92;101324.50;5044638;28;20090;-66
2022/02/03 18:54:41;;;;;;;14.27;6.25;;;;;;;7.86;78.66;101325.38;5044771;28;20029;-65
2022/02/03 18:57:00;;;;;;;13.15;6.35;;;;;;;7.87;78.76;101319.22;5041717;28;20118;-65
2022/02/03 19:10:15;;;;;;;12.25;7.78;;;;;;;7.73;79.97;101316.81;5044334;28;20560;-64
2022/02/03 19:28:35;;;;;;;15.77;9.63;;;;;;;7.69;80.73;101295.88;5025751;28;20029;-64
2022/02/03 20:11:50;;;;;;;13.65;6.03;;;;;;;7.56;78.72;101294.31;5029272;28;20300;-64
2022/02/03 20:14:16;;;;;;;17.30;6.22;;;;;;;7.49;79.05;101301.38;5027499;28;20392;-65
2022/02/03 20:16:42;;;;;;;11.77;5.47;;;;;;;7.49;78.93;101292.66;5023863;28;20526;-65
2022/02/03 20:19:09;;;;;;;12.45;5.18;;;;;;;7.43;78.90;101283.09;5025028;28;20029;-65
2022/02/03 20:21:36;;;;;;;8.65;4.88;;;;;;;7.43;78.76;101286.59;5027818;28;20025;-65
2022/02/03 20:24:04;;;;;;;12.98;5.20;;;;;;;7.45;78.74;101281.34;5027601;28;20033;-65
2022/02/03 20:26:29;;;;;;;12.30;5.00;;;;;;;7.45;78.39;101282.22;5011108;28;20112;-65
2022/02/03 20:28:54;;;;;;;11.15;4.57;;;;;;;7.52;78.25;101282.09;5028368;28;20100;-65
2022/02/03 20:31:20;;;;;;;11.98;5.00;;;;;;;7.56;77.75;101284.66;5027615;28;20057;-65
2022/02/03 20:33:45;;;;;;;6.90;4.10;;;;;;;7.68;77.07;101277.53;5027114;28;20057;-65
2022/02/03 20:36:10;;;;;;;5.78;3.70;;;;;;;7.70;76.99;101276.63;5029971;28;20051;-65
2022/02/03 20:38:36;;;;;;;9.48;3.92;;;;;;;7.71;76.58;101278.34;5028674;28;20034;-67
2022/02/03 20:41:03;;;;;;;11.77;4.15;;;;;;;7.78;76.58;101289.63;5026460;28;20072;-66
2022/02/03 20:43:28;;;;;;;9.30;4.10;;;;;;;7.81;76.45;101289.56;5027646;28;20022;-65
2022/02/03 20:45:53;;;;;;;13.55;3.90;;;;;;;7.88;76.31;101289.47;5027224;28;20095;-66
2022/02/03 20:48:19;;;;;;;9.73;4.28;;;;;;;7.89;76.35;101283.34;5027334;28;20029;-66
2022/02/03 20:50:49;;;;;;;12.02;3.92;;;;;;;7.89;76.11;101280.72;5027207;28;20012;-65
2022/02/03 20:53:15;;;;;;;15.40;5.55;;;;;;;7.88;76.43;101273.72;5030792;28;20025;-67
2022/02/03 20:55:45;;;;;;;8.93;4.65;;;;;;;7.93;75.96;101272.78;5032559;28;20385;-65
2022/02/03 20:58:14;;;;;;;13.23;4.90;;;;;;;7.93;76.04;101277.16;5034283;28;20025;-65
2022/02/03 21:00:48;;;;;;;10.75;4.82;;;;;;;7.91;76.21;101274.53;5048139;28;20040;-65
2022/02/03 21:05:57;;;;;;;11.68;5.43;;;;;;;7.96;76.09;101266.59;5012682;28;20057;-66
2022/02/03 21:08:30;;;;;;;11.25;6.88;;;;;;;7.95;76.04;101270.97;5026457;28;20045;-66
2022/02/03 21:10:55;;;;;;;16.83;6.53;;;;;;;7.94;76.30;101271.00;5027902;28;20029;-66
2022/02/03 21:13:21;;;;;;;14.40;6.25;;;;;;;7.92;76.00;101273.66;5027935;28;20032;-65
2022/02/03 21:15:46;;;;;;;10.95;6.47;;;;;;;7.95;75.96;101275.38;5026560;28;20549;-66
2022/02/03 21:18:14;;;;;;;10.15;6.18;;;;;;;7.94;75.72;101271.00;5027586;28;20029;-65
2022/02/03 21:20:40;;;;;;;16.80;6.80;;;;;;;7.92;75.55;101270.19;5026973;28;20112;-66
2022/02/03 21:23:06;;;;;;;14.85;6.90;;;;;;;8.03;75.61;101273.47;5031551;28;20029;-65
2022/02/03 21:25:41;;;;;;;13.30;7.35;;;;;;;8.08;75.25;101266.41;5048069;28;20041;-66
2022/02/03 21:28:15;;;;;;;10.80;6.82;;;;;;;8.15;75.24;101266.28;5046310;28;20440;-65
2022/02/03 21:30:41;;;;;;;13.68;7.28;;;;;;;8.16;75.30;101258.38;5046181;28;20029;-64
2022/02/03 21:33:11;;;;;;;13.45;7.95;;;;;;;8.16;75.48;101262.78;5046689;28;20107;-66
2022/02/03 21:35:36;;;;;;;15.32;8.98;;;;;;;8.10;75.64;101271.63;5027425;28;20072;-66
2022/02/03 21:38:03;;;;;;;16.85;7.78;;;;;;;8.17;75.67;101270.63;5009128;28;20064;-65
2022/02/03 21:40:28;;;;;;;14.57;7.93;;;;;;;8.16;75.70;101274.13;5027420;28;20025;-65
2022/02/03 21:42:53;;;;;;;13.90;8.52;;;;;;;8.06;75.83;101265.56;5027355;28;20357;-66
2022/02/03 21:45:22;;;;;;;16.13;7.68;;;;;;;8.11;75.72;101264.63;5034917;28;20037;-65
2022/02/03 21:47:47;;;;;;;12.93;7.47;;;;;;;8.12;75.77;101255.88;5046576;28;20025;-66
2022/02/03 21:50:13;;;;;;;17.90;8.77;;;;;;;8.12;75.70;101256.72;5046974;28;20047;-69
2022/02/03 21:52:45;;;;;;;18.33;8.45;;;;;;;8.12;75.79;101255.88;5046768;28;20082;-66
2022/02/03 21:55:11;;;;;;;13.98;8.27;;;;;;;8.09;76.15;101262.88;5030934;28;20029;-64
2022/02/03 21:57:40;;;;;;;15.18;8.40;;;;;;;8.13;76.12;101268.09;5046211;28;20033;-65
2022/02/03 22:00:07;;;;;;;15.32;8.35;;;;;;;8.09;75.73;101264.63;5046257;28;20021;-66
2022/02/03 22:02:32;;;;;;;13.85;8.00;;;;;;;8.11;75.35;101260.25;5045806;28;20025;-66
2022/02/03 22:04:58;;;;;;;17.90;8.63;;;;;;;8.08;75.51;101255.91;5046521;28;20025;-66
2022/02/03 22:07:23;;;;;;;11.15;7.10;;;;;;;8.11;75.06;101265.50;5036000;28;20045;-65
2022/02/03 22:09:48;;;;;;;11.23;7.38;;;;;;;8.12;75.29;101256.72;5026835;28;20029;-65
2022/02/03 22:12:14;;;;;;;12.43;7.18;;;;;;;8.16;74.76;101252.28;5025939;28;20037;-65
2022/02/03 22:14:39;;;;;;;14.15;8.23;;;;;;;8.13;74.84;101241.84;5027169;28;20067;-65
2022/02/03 22:17:06;;;;;;;15.63;7.50;;;;;;;8.17;74.58;101244.41;5025919;28;20021;-64
2022/02/03 22:19:31;;;;;;;14.98;7.68;;;;;;;8.11;74.89;101235.75;5025065;28;20037;-66